Time;durP1;ratioP1;P1;durP2;ratioP2;P2;SDS_P1;SDS_P2;PMS_P1;PMS_P2;Temp;Humidity;BMP_temperature;BMP_pressure;BME280_temperature;BME280_humidity;BME280_pressure;Samples;Min_cycle;Max_cycle;Signal;HPM_P1;HPM_P2
2023/08/12 00:00:16;;;;;;;15.63;8.48;;;;;;;21.54;100.00;101687.28;5095397;28;20020;-51
2023/08/12 00:02:43;;;;;;;11.13;8.65;;;;;;;21.48;100.00;101686.09;5098314;28;20039;-51
2023/08/12 00:05:10;;;;;;;12.60;7.60;;;;;;;21.44;100.00;101692.84;5103082;28;20102;-50
2023/08/12 00:07:36;;;;;;;10.98;7.78;;;;;;;21.38;100.00;101685.38;5101531;28;20461;-52
2023/08/12 00:10:04;;;;;;;13.38;7.97;;;;;;;21.36;100.00;101688.25;5097748;28;20090;-52
2023/08/12 00:12:32;;;;;;;13.00;8.25;;;;;;;21.37;100.00;101683.72;5101226;28;20047;-52
2023/08/12 00:14:58;;;;;;;;;;;;;;;21.54;100.00;101685.44;5098369;28;20424;-51
2023/08/12 00:17:23;;;;;;;12.40;7.83;;;;;;;21.37;100.00;101673.75;5095662;28;19912;-51
2023/08/12 00:19:48;;;;;;;13.30;8.35;;;;;;;21.33;100.00;101666.97;5097310;28;20355;-50
2023/08/12 00:22:14;;;;;;;17.70;9.10;;;;;;;21.31;100.00;101665.47;5096982;28;20016;-51
2023/08/12 00:24:40;;;;;;;16.40;8.70;;;;;;;21.27;100.00;101662.25;5096152;28;20036;-51
2023/08/12 00:27:06;;;;;;;13.38;8.30;;;;;;;21.25;100.00;101665.13;5101762;28;20051;-50
2023/08/12 00:29:31;;;;;;;16.42;9.43;;;;;;;21.21;100.00;101658.34;5095726;28;20024;-52
2023/08/12 00:31:57;;;;;;;13.25;8.20;;;;;;;21.19;100.00;101660.38;5095847;28;20553;-50
2023/08/12 00:34:22;;;;;;;13.00;8.18;;;;;;;21.20;100.00;101658.53;5100702;28;20041;-51
2023/08/12 00:36:47;;;;;;;15.32;7.68;;;;;;;21.18;100.00;101647.91;5097801;28;20020;-50
2023/08/12 00:39:13;;;;;;;12.75;8.65;;;;;;;21.17;100.00;101657.00;5095326;28;20138;-50
2023/08/12 00:41:39;;;;;;;15.10;8.90;;;;;;;21.15;100.00;101659.06;5099292;28;20054;-51
2023/08/12 00:44:04;;;;;;;14.38;8.77;;;;;;;21.13;100.00;101652.09;5097364;28;20089;-51
2023/08/12 00:46:30;;;;;;;15.48;9.23;;;;;;;21.13;100.00;101647.53;5096673;28;20026;-50
2023/08/12 00:48:55;;;;;;;17.35;9.05;;;;;;;21.12;100.00;101636.94;5100975;28;20042;-50
2023/08/12 00:51:21;;;;;;;15.90;9.77;;;;;;;21.10;100.00;101639.81;5097209;28;20088;-50
2023/08/12 00:53:46;;;;;;;16.83;9.57;;;;;;;21.09;100.00;101635.41;5095363;28;20122;-49
2023/08/12 00:56:12;;;;;;;15.25;9.07;;;;;;;21.12;100.00;101642.34;5101470;28;20119;-49
2023/08/12 00:58:39;;;;;;;20.25;9.90;;;;;;;21.09;100.00;101638.09;5096101;28;20502;-50
2023/08/12 01:01:04;;;;;;;15.18;9.75;;;;;;;21.06;100.00;101630.31;5095762;28;20107;-51
2023/08/12 01:03:30;;;;;;;15.60;9.57;;;;;;;21.05;100.00;101632.19;5098342;28;20111;-50
2023/08/12 01:05:55;;;;;;;13.43;8.80;;;;;;;21.03;100.00;101627.97;5096973;28;20100;-50
2023/08/12 01:08:21;;;;;;;16.75;9.73;;;;;;;21.05;100.00;101628.66;5100630;28;20040;-49
2023/08/12 01:10:56;;;;;;;12.70;8.93;;;;;;;21.01;100.00;101625.41;5091577;28;20088;-50
2023/08/12 01:13:45;;;;;;;13.25;9.50;;;;;;;21.05;100.00;101624.09;5091789;28;20382;-50
2023/08/12 01:16:16;;;;;;;18.30;10.18;;;;;;;20.97;100.00;101623.25;5095326;28;20089;-50
2023/08/12 01:18:42;;;;;;;15.07;9.88;;;;;;;20.95;100.00;101617.16;5094944;28;20080;-49
2023/08/12 01:21:15;;;;;;;17.30;9.80;;;;;;;20.91;100.00;101615.81;5096545;28;20018;-50
2023/08/12 01:23:41;;;;;;;15.07;9.95;;;;;;;20.92;100.00;101606.66;5092405;28;20077;-49
2023/08/12 01:26:06;;;;;;;14.15;9.27;;;;;;;20.91;100.00;101605.00;5099859;28;20031;-50
2023/08/12 01:28:31;;;;;;;15.80;9.60;;;;;;;20.91;100.00;101600.44;5099275;28;20028;-50
2023/08/12 01:31:18;;;;;;;14.35;9.23;;;;;;;20.92;100.00;101602.13;5097263;28;20043;-50
2023/08/12 01:33:52;;;;;;;16.95;8.57;;;;;;;20.87;100.00;101604.50;5098477;28;20106;-50
2023/08/12 01:36:20;;;;;;;20.35;9.38;;;;;;;20.84;100.00;101594.84;5095472;28;20020;-50
2023/08/12 01:38:47;;;;;;;13.00;9.30;;;;;;;20.84;100.00;101596.72;5100586;28;20430;-50
2023/08/12 01:41:14;;;;;;;16.23;9.48;;;;;;;20.82;100.00;101599.59;5097793;28;20103;-50
2023/08/12 01:43:40;;;;;;;13.07;8.90;;;;;;;20.82;100.00;101590.66;5098903;28;20027;-50
2023/08/12 01:46:05;;;;;;;16.83;9.65;;;;;;;20.79;100.00;101589.13;5096806;28;20031;-50
2023/08/12 01:48:31;;;;;;;14.73;8.75;;;;;;;20.81;100.00;101588.94;5098397;28;20388;-51
2023/08/12 01:50:56;;;;;;;13.48;8.13;;;;;;;20.80;100.00;101589.94;5099782;28;20046;-51
2023/08/12 01:53:21;;;;;;;16.35;9.05;;;;;;;20.75;100.00;101587.78;5097764;28;20389;-50
2023/08/12 01:55:50;;;;;;;13.85;8.57;;;;;;;20.74;100.00;101586.06;5089084;28;20575;-50
2023/08/12 01:58:15;;;;;;;12.68;8.40;;;;;;;20.73;100.00;101587.06;5097224;28;20028;-51
2023/08/12 02:00:40;;;;;;;13.65;8.38;;;;;;;20.73;100.00;101584.38;5095397;28;20039;-51
2023/08/12 02:03:06;;;;;;;11.57;7.97;;;;;;;20.69;100.00;101583.03;5091331;28;20114;-52
2023/08/12 02:05:32;;;;;;;15.95;8.70;;;;;;;20.69;100.00;101574.94;5099106;28;20392;-53
2023/08/12 02:07:57;;;;;;;16.17;8.40;;;;;;;20.67;100.00;101575.09;5088642;28;20024;-51
2023/08/12 02:10:22;;;;;;;12.27;7.80;;;;;;;20.64;100.00;101575.44;5097612;28;20024;-50
2023/08/12 02:12:48;;;;;;;22.77;8.35;;;;;;;20.65;100.00;101573.56;5091991;28;20036;-51
2023/08/12 02:15:13;;;;;;;13.43;6.97;;;;;;;20.62;100.00;101571.19;5096494;28;20036;-52
2023/08/12 02:17:38;;;;;;;14.43;7.90;;;;;;;20.63;100.00;101572.88;5097081;28;20016;-50
2023/08/12 02:20:04;;;;;;;12.75;7.57;;;;;;;20.61;100.00;101574.88;5097736;28;20036;-50
2023/08/12 02:22:30;;;;;;;12.45;7.07;;;;;;;20.61;100.00;101566.78;5098906;28;20028;-50
2023/08/12 02:24:55;;;;;;;14.10;7.38;;;;;;;20.61;100.00;101559.53;5094416;28;20031;-50
2023/08/12 02:27:20;;;;;;;12.32;6.88;;;;;;;20.59;100.00;101561.56;5099345;28;20070;-50
2023/08/12 02:29:46;;;;;;;12.68;7.35;;;;;;;20.61;100.00;101556.00;5104084;28;20027;-50
2023/08/12 02:32:11;;;;;;;14.02;7.22;;;;;;;20.57;100.00;101554.63;5098704;28;20331;-50
2023/08/12 02:34:36;;;;;;;11.63;6.28;;;;;;;20.60;100.00;101555.16;5099622;28;20016;-51
2023/08/12 02:37:02;;;;;;;12.70;6.63;;;;;;;20.58;100.00;101551.75;5105700;28;20051;-51
2023/08/12 02:39:27;;;;;;;11.13;6.75;;;;;;;20.58;100.00;101545.53;5101387;28;20076;-51
2023/08/12 02:41:52;;;;;;;12.38;7.03;;;;;;;20.56;100.00;101542.16;5100449;28;20023;-49
2023/08/12 02:44:18;;;;;;;13.47;6.87;;;;;;;20.53;100.00;101540.63;5101887;28;20636;-50
2023/08/12 02:46:43;;;;;;;11.40;6.75;;;;;;;20.52;100.00;101536.25;5101512;28;20289;-50
2023/08/12 02:49:08;;;;;;;11.27;6.25;;;;;;;20.55;100.00;101537.75;5100955;28;20027;-50
2023/08/12 02:51:33;;;;;;;10.68;6.55;;;;;;;20.55;100.00;101535.06;5100819;28;20381;-50
2023/08/12 02:53:59;;;;;;;12.45;6.68;;;;;;;20.51;100.00;101530.00;5097715;28;20388;-50
2023/08/12 02:56:24;;;;;;;11.57;6.80;;;;;;;20.47;100.00;101534.03;5090355;28;20071;-50
2023/08/12 02:58:50;;;;;;;11.52;6.40;;;;;;;20.46;100.00;101529.66;5106047;28;20019;-50
2023/08/12 03:01:15;;;;;;;12.30;6.22;;;;;;;20.45;100.00;101525.28;5099347;28;20370;-50
2023/08/12 03:03:41;;;;;;;15.68;6.47;;;;;;;20.46;100.00;101526.94;5099456;28;20103;-50
2023/08/12 03:06:06;;;;;;;13.13;6.18;;;;;;;20.43;100.00;101519.19;5100696;28;20530;-49
2023/08/12 03:08:32;;;;;;;11.82;6.00;;;;;;;20.43;100.00;101521.03;5102241;28;20047;-50
2023/08/12 03:10:59;;;;;;;10.95;5.43;;;;;;;20.44;100.00;101528.97;5096805;28;20027;-50
2023/08/12 03:13:24;;;;;;;8.48;5.13;;;;;;;20.42;100.00;101522.91;5098983;28;20023;-50
2023/08/12 03:15:49;;;;;;;11.90;5.45;;;;;;;20.40;100.00;101519.53;5099259;28;20524;-50
2023/08/12 03:18:15;;;;;;;10.13;5.57;;;;;;;20.38;100.00;101515.31;5094878;28;20032;-50
2023/08/12 03:20:40;;;;;;;11.67;5.83;;;;;;;20.38;100.00;101512.59;5092527;28;20485;-50
2023/08/12 03:23:05;;;;;;;11.40;6.35;;;;;;;20.34;100.00;101502.16;5096063;28;20270;-50
2023/08/12 03:25:31;;;;;;;10.50;5.70;;;;;;;20.35;100.00;101500.31;5091502;28;20052;-50
2023/08/12 03:27:56;;;;;;;8.55;6.13;;;;;;;20.31;100.00;101497.06;5099929;28;20051;-49
2023/08/12 03:30:21;;;;;;;8.18;6.13;;;;;;;20.29;100.00;101493.72;5102589;28;20401;-50
2023/08/12 03:32:46;;;;;;;14.52;6.20;;;;;;;20.31;100.00;101497.06;5101860;27;20020;-50
2023/08/12 03:35:12;;;;;;;12.40;6.57;;;;;;;20.28;100.00;101494.72;5099612;28;20024;-50
2023/08/12 03:37:37;;;;;;;9.68;6.05;;;;;;;20.26;100.00;101485.09;5097045;28;20026;-50
2023/08/12 03:40:03;;;;;;;10.60;6.53;;;;;;;20.21;100.00;101479.38;5101779;28;20085;-50
2023/08/12 03:42:28;;;;;;;12.55;6.38;;;;;;;20.20;100.00;101480.38;5094317;28;20016;-50
2023/08/12 03:44:54;;;;;;;12.70;6.32;;;;;;;20.17;100.00;101481.56;5095806;28;20056;-49
2023/08/12 03:47:21;;;;;;;11.95;6.07;;;;;;;20.18;100.00;101482.38;5095052;28;20034;-50
2023/08/12 03:49:47;;;;;;;10.52;5.75;;;;;;;20.12;100.00;101479.34;5096964;28;20024;-50
2023/08/12 03:52:13;;;;;;;8.20;5.72;;;;;;;20.12;100.00;101479.34;5096977;28;20553;-51
2023/08/12 03:54:39;;;;;;;9.10;5.88;;;;;;;20.12;100.00;101468.56;5093907;28;20028;-51
2023/08/12 03:57:04;;;;;;;10.50;5.93;;;;;;;20.11;100.00;101474.94;5098131;28;20044;-50
2023/08/12 03:59:29;;;;;;;6.75;5.13;;;;;;;20.09;100.00;101462.66;5100407;28;20481;-51
2023/08/12 04:01:55;;;;;;;10.10;5.13;;;;;;;20.12;100.00;101465.03;5099497;28;20024;-50
2023/08/12 04:04:20;;;;;;;10.40;5.73;;;;;;;20.09;100.00;101476.97;5093702;28;20032;-50
2023/08/12 04:06:48;;;;;;;12.63;5.28;;;;;;;20.07;100.00;101465.50;5101029;28;20485;-50
2023/08/12 04:09:13;;;;;;;9.00;5.13;;;;;;;20.02;100.00;101467.88;5095756;28;20028;-51
2023/08/12 04:11:38;;;;;;;10.90;5.38;;;;;;;19.97;100.00;101454.03;5100511;28;20024;-50
2023/08/12 04:14:04;;;;;;;10.48;4.82;;;;;;;19.93;100.00;101455.34;5097938;28;20024;-50
2023/08/12 04:16:29;;;;;;;7.88;4.28;;;;;;;19.87;100.00;101443.38;5100722;28;20024;-51
2023/08/12 04:18:54;;;;;;;9.30;4.25;;;;;;;19.82;100.00;101450.25;5096197;28;20397;-50
2023/08/12 04:21:20;;;;;;;8.17;4.43;;;;;;;19.80;100.00;101460.38;5102009;28;20114;-50
2023/08/12 04:23:45;;;;;;;8.68;4.50;;;;;;;19.80;100.00;101452.28;5097378;28;20636;-50
2023/08/12 04:26:10;;;;;;;7.78;4.72;;;;;;;19.77;100.00;101451.59;5099897;28;20462;-51
2023/08/12 04:28:36;;;;;;;8.48;4.80;;;;;;;19.79;100.00;101459.53;5100549;28;20047;-51
2023/08/12 04:31:07;;;;;;;9.35;5.18;;;;;;;19.76;100.00;101455.31;5099207;28;20058;-51
2023/08/12 04:33:32;;;;;;;9.02;5.05;;;;;;;19.77;100.00;101459.69;5087174;28;20039;-53
2023/08/12 04:35:58;;;;;;;7.22;5.15;;;;;;;19.77;100.00;101465.09;5094063;28;20067;-51
2023/08/12 04:38:23;;;;;;;8.05;4.80;;;;;;;19.74;100.00;101459.97;5096657;28;20115;-52
2023/08/12 04:40:49;;;;;;;9.43;5.53;;;;;;;19.75;100.00;101447.38;5095544;28;20032;-51
2023/08/12 04:43:14;;;;;;;8.73;5.75;;;;;;;19.69;100.00;101439.94;5102159;28;20051;-52
2023/08/12 04:45:39;;;;;;;10.38;5.97;;;;;;;19.66;100.00;101440.25;5097117;28;20048;-54
2023/08/12 04:48:06;;;;;;;11.13;6.78;;;;;;;19.59;100.00;101448.13;5099451;28;20060;-52
2023/08/12 04:50:34;;;;;;;10.50;6.07;;;;;;;19.59;100.00;101448.13;5098746;28;20272;-52
2023/08/12 04:52:59;;;;;;;10.35;6.07;;;;;;;19.59;100.00;101440.88;5097252;28;20031;-53
2023/08/12 04:55:26;;;;;;;13.10;6.88;;;;;;;19.57;100.00;101442.91;5096838;28;20473;-52
2023/08/12 04:57:51;;;;;;;11.05;6.30;;;;;;;19.54;100.00;101437.84;5099120;27;20028;-54
2023/08/12 05:00:17;;;;;;;13.23;6.20;;;;;;;19.53;100.00;101421.84;5099972;28;20366;-53
2023/08/12 05:02:43;;;;;;;13.80;6.28;;;;;;;19.49;100.00;101428.56;5090934;28;20399;-53
2023/08/12 05:05:08;;;;;;;11.93;6.03;;;;;;;19.45;100.00;101424.50;5100153;28;20089;-52
2023/08/12 05:07:33;;;;;;;9.65;5.57;;;;;;;19.42;100.00;101429.22;5096526;28;20028;-52
2023/08/12 05:09:59;;;;;;;9.00;5.43;;;;;;;19.41;100.00;101434.75;5098804;28;20032;-53
2023/08/12 05:12:24;;;;;;;9.52;4.95;;;;;;;19.39;100.00;101426.84;5094131;28;20032;-52
2023/08/12 05:14:49;;;;;;;9.48;5.60;;;;;;;19.36;100.00;101413.69;5098636;28;20028;-52
2023/08/12 05:17:15;;;;;;;7.57;5.72;;;;;;;19.31;100.00;101418.72;5097115;28;20073;-52
2023/08/12 05:19:40;;;;;;;6.93;5.40;;;;;;;19.33;100.00;101423.94;5096815;28;20170;-52
2023/08/12 05:22:06;;;;;;;8.95;6.00;;;;;;;19.34;100.00;101422.94;5098020;28;20067;-52
2023/08/12 05:24:31;;;;;;;8.55;5.60;;;;;;;19.32;100.00;101416.88;5092147;28;20036;-52
2023/08/12 05:26:56;;;;;;;7.97;5.22;;;;;;;19.30;100.00;101400.00;5091823;28;20429;-52
2023/08/12 05:29:22;;;;;;;7.55;5.15;;;;;;;19.31;100.00;101416.03;5095982;28;20094;-52
2023/08/12 05:31:47;;;;;;;7.38;5.43;;;;;;;19.33;100.00;101413.16;5097981;28;20023;-53
2023/08/12 05:34:12;;;;;;;6.80;4.85;;;;;;;19.32;100.00;101408.81;5101623;28;20026;-53
2023/08/12 05:36:38;;;;;;;7.25;4.88;;;;;;;19.30;100.00;101405.41;5090410;28;20028;-52
2023/08/12 05:39:03;;;;;;;7.57;4.90;;;;;;;19.29;100.00;101411.81;5098171;28;20016;-52
2023/08/12 05:41:29;;;;;;;5.30;4.63;;;;;;;19.27;100.00;101411.97;5096953;28;20036;-53
2023/08/12 05:43:54;;;;;;;6.82;4.53;;;;;;;19.26;100.00;101399.50;5097421;28;20124;-54
2023/08/12 05:46:20;;;;;;;6.68;4.57;;;;;;;19.27;100.00;101405.72;5093372;28;20490;-53
2023/08/12 05:48:45;;;;;;;6.60;4.47;;;;;;;19.28;100.00;101405.56;5090550;28;20147;-52
2023/08/12 05:51:10;;;;;;;4.68;3.78;;;;;;;19.25;100.00;101403.19;5096652;28;20094;-52
2023/08/12 05:53:36;;;;;;;6.18;4.88;;;;;;;19.23;100.00;101402.50;5095051;28;20119;-51
2023/08/12 05:56:01;;;;;;;6.20;4.40;;;;;;;19.23;100.00;101405.19;5096650;28;20400;-51
2023/08/12 05:58:27;;;;;;;5.32;4.38;;;;;;;19.22;100.00;101400.84;5095286;28;20108;-51
2023/08/12 06:00:52;;;;;;;7.55;4.30;;;;;;;19.22;100.00;101395.44;5089350;28;20073;-52
2023/08/12 06:03:18;;;;;;;7.10;4.32;;;;;;;19.23;100.00;101399.81;5088873;28;20107;-51
2023/08/12 06:05:47;;;;;;;5.50;4.60;;;;;;;19.19;100.00;101396.59;5087292;28;20561;-51
2023/08/12 06:08:13;;;;;;;6.20;4.57;;;;;;;19.18;100.00;101397.59;5086915;28;20344;-55
2023/08/12 06:10:39;;;;;;;7.32;4.47;;;;;;;19.21;100.00;101393.75;5093674;28;20031;-52
2023/08/12 06:13:04;;;;;;;6.18;4.40;;;;;;;19.20;100.00;101389.38;5088610;28;20031;-53
2023/08/12 06:15:30;;;;;;;5.55;4.20;;;;;;;19.18;100.00;101386.81;5092063;28;20385;-51
2023/08/12 06:17:55;;;;;;;5.25;3.97;;;;;;;19.17;100.00;101387.03;5093831;28;20060;-51
2023/08/12 06:20:20;;;;;;;6.88;4.70;;;;;;;19.17;100.00;101382.47;5085388;28;20047;-51
2023/08/12 06:22:46;;;;;;;4.82;4.38;;;;;;;19.20;100.00;101375.91;5094482;28;20038;-53
2023/08/12 06:25:11;;;;;;;5.57;4.20;;;;;;;19.25;100.00;101381.63;5089628;28;20028;-51
2023/08/12 06:27:38;;;;;;;5.88;4.47;;;;;;;19.22;100.00;101377.44;5097894;28;20415;-51
2023/08/12 06:30:04;;;;;;;4.43;4.03;;;;;;;19.19;100.00;101368.84;5096758;28;20030;-53
2023/08/12 06:32:29;;;;;;;4.30;3.75;;;;;;;19.20;100.00;101363.28;5092226;28;20463;-51
2023/08/12 06:34:54;;;;;;;6.00;4.05;;;;;;;19.20;100.00;101363.28;5093741;28;20299;-51
2023/08/12 06:37:19;;;;;;;4.18;3.78;;;;;;;19.23;100.00;101362.13;5088229;28;20056;-50
2023/08/12 06:39:45;;;;;;;3.53;3.20;;;;;;;19.25;100.00;101359.25;5093342;28;20032;-53
2023/08/12 06:42:10;;;;;;;3.08;2.80;;;;;;;19.27;100.00;101368.00;5092786;28;20025;-51
2023/08/12 06:44:35;;;;;;;5.03;3.33;;;;;;;19.28;100.00;101362.47;5094489;28;20048;-50
2023/08/12 06:47:01;;;;;;;3.40;3.05;;;;;;;19.29;100.00;101358.78;5096299;28;20120;-53
2023/08/12 06:49:26;;;;;;;4.72;3.25;;;;;;;19.31;100.00;101354.06;5088175;28;20740;-51
2023/08/12 06:51:51;;;;;;;3.40;3.10;;;;;;;19.36;100.00;101367.06;5092187;28;20032;-51
2023/08/12 06:54:17;;;;;;;3.45;3.15;;;;;;;19.38;100.00;101365.91;5094879;28;20592;-51
2023/08/12 06:56:42;;;;;;;3.30;2.72;;;;;;;19.40;100.00;101353.09;5090943;28;20553;-52
2023/08/12 06:59:07;;;;;;;3.92;3.40;;;;;;;19.45;100.00;101354.44;5093187;28;20024;-53
2023/08/12 07:01:33;;;;;;;3.50;3.20;;;;;;;19.48;100.00;101351.44;5092935;28;20444;-51
2023/08/12 07:03:58;;;;;;;3.38;3.10;;;;;;;19.50;100.00;101347.59;5089916;28;20044;-51
2023/08/12 07:06:23;;;;;;;6.00;3.58;;;;;;;19.53;100.00;101349.09;5088475;28;20032;-51
2023/08/12 07:08:48;;;;;;;3.92;3.63;;;;;;;19.56;100.00;101343.38;5096392;28;20051;-51
2023/08/12 07:11:14;;;;;;;4.20;3.80;;;;;;;19.58;100.00;101349.44;5094037;28;20402;-51
2023/08/12 07:13:39;;;;;;;4.53;4.22;;;;;;;19.59;100.00;101343.88;5098346;28;20051;-53
2023/08/12 07:16:04;;;;;;;4.20;3.90;;;;;;;19.60;100.00;101348.28;5091009;28;20020;-49
2023/08/12 07:18:30;;;;;;;4.30;4.00;;;;;;;19.61;100.00;101349.13;5096317;28;20027;-50
2023/08/12 07:20:58;;;;;;;4.35;3.95;;;;;;;19.65;100.00;101352.31;5091393;28;20478;-50
2023/08/12 07:23:23;;;;;;;4.88;3.92;;;;;;;19.66;100.00;101349.47;5092752;28;20065;-51
2023/08/12 07:25:49;;;;;;;4.20;3.90;;;;;;;19.66;100.00;101349.47;5093452;28;20024;-52
2023/08/12 07:28:14;;;;;;;4.20;3.90;;;;;;;19.70;100.00;101349.97;5105021;28;20070;-52
2023/08/12 07:30:39;;;;;;;4.40;4.00;;;;;;;19.71;100.00;101354.38;5099808;28;20056;-51
2023/08/12 07:33:05;;;;;;;3.97;3.67;;;;;;;19.71;100.00;101354.38;5097100;28;20334;-51
2023/08/12 07:35:30;;;;;;;4.00;3.70;;;;;;;19.71;100.00;101352.50;5098117;28;20115;-51
2023/08/12 07:37:56;;;;;;;3.63;3.33;;;;;;;19.73;100.00;101350.50;5094447;28;20384;-51
2023/08/12 07:40:21;;;;;;;4.15;3.45;;;;;;;19.74;100.00;101360.25;5095439;28;20039;-52
2023/08/12 07:42:47;;;;;;;3.88;3.58;;;;;;;19.77;100.00;101348.34;5086936;28;20035;-51
2023/08/12 07:45:13;;;;;;;3.75;3.28;;;;;;;19.80;100.00;101347.16;5097807;28;20044;-52
2023/08/12 07:47:38;;;;;;;3.45;3.15;;;;;;;19.82;100.00;101347.81;5098744;28;20034;-51
2023/08/12 07:50:04;;;;;;;3.30;3.00;;;;;;;19.84;100.00;101340.44;5097291;28;20437;-53
2023/08/12 07:52:29;;;;;;;3.17;2.85;;;;;;;19.88;100.00;101342.63;5093060;28;20028;-51
2023/08/12 07:54:55;;;;;;;3.20;3.00;;;;;;;19.90;100.00;101351.41;5094169;28;20573;-52
2023/08/12 07:57:23;;;;;;;3.15;2.85;;;;;;;19.92;100.00;101343.16;5093291;28;20386;-51
2023/08/12 07:59:49;;;;;;;2.70;2.45;;;;;;;19.97;100.00;101354.28;5098416;28;20028;-52
2023/08/12 08:02:14;;;;;;;5.00;2.50;;;;;;;20.03;100.00;101358.97;5096115;28;20413;-53
2023/08/12 08:04:40;;;;;;;2.40;2.20;;;;;;;20.08;100.00;101356.63;5095273;28;20032;-53
2023/08/12 08:07:05;;;;;;;2.63;2.40;;;;;;;20.19;100.00;101362.72;5096735;28;20362;-54
2023/08/12 08:09:30;;;;;;;2.72;2.53;;;;;;;20.22;100.00;101363.22;5099124;28;20043;-52
2023/08/12 08:11:56;;;;;;;2.20;2.10;;;;;;;20.23;100.00;101366.75;5094384;28;20028;-52
2023/08/12 08:14:21;;;;;;;2.30;2.20;;;;;;;20.25;100.00;101367.41;5099149;28;20040;-51
2023/08/12 08:16:46;;;;;;;3.78;2.00;;;;;;;20.28;100.00;101367.94;5102941;28;20023;-51
2023/08/12 08:19:12;;;;;;;1.92;1.83;;;;;;;20.30;100.00;101375.84;5096684;28;20039;-51
2023/08/12 08:21:37;;;;;;;2.50;2.30;;;;;;;20.27;100.00;101381.59;5095424;28;20450;-51
2023/08/12 08:24:03;;;;;;;2.90;2.70;;;;;;;20.27;100.00;101385.13;5092825;28;20377;-51
2023/08/12 08:26:28;;;;;;;2.97;2.70;;;;;;;20.32;100.00;101371.97;5100122;28;20139;-52
2023/08/12 08:28:53;;;;;;;3.45;3.17;;;;;;;20.35;100.00;101378.91;5098795;28;20443;-52
2023/08/12 08:31:19;;;;;;;4.07;3.60;;;;;;;20.37;100.00;101378.72;5099308;28;20479;-52
2023/08/12 08:33:44;;;;;;;4.28;3.97;;;;;;;20.40;100.00;101387.34;5096423;28;20032;-51
2023/08/12 08:36:09;;;;;;;6.22;5.10;;;;;;;20.42;100.00;101382.59;5096561;28;20077;-51
2023/08/12 08:38:36;;;;;;;5.68;5.28;;;;;;;20.46;100.00;101386.63;5088984;28;20020;-52
2023/08/12 08:41:05;;;;;;;6.75;6.25;;;;;;;20.49;100.00;101389.00;5095357;28;20032;-51
2023/08/12 08:43:35;;;;;;;7.35;6.85;;;;;;;20.50;100.00;101389.84;5093733;28;20370;-51
2023/08/12 08:46:01;;;;;;;8.45;7.85;;;;;;;20.55;100.00;101390.19;5089190;28;20035;-51
2023/08/12 08:48:26;;;;;;;9.07;8.30;;;;;;;20.61;100.00;101396.75;5091586;28;20421;-53
2023/08/12 08:50:53;;;;;;;10.80;9.82;;;;;;;20.60;100.00;101395.94;5090076;28;20036;-52
2023/08/12 08:53:19;;;;;;;10.23;9.43;;;;;;;20.56;100.00;101399.13;5090861;28;20041;-51
2023/08/12 08:55:45;;;;;;;10.55;9.70;;;;;;;20.55;100.00;101408.22;5097118;28;20028;-51
2023/08/12 08:58:11;;;;;;;9.23;8.60;;;;;;;20.54;100.00;101401.16;5094797;28;20389;-51
2023/08/12 09:00:37;;;;;;;8.40;7.80;;;;;;;20.43;100.00;101384.28;5098548;28;20024;-51
2023/08/12 09:03:05;;;;;;;6.97;6.32;;;;;;;20.41;100.00;101399.78;5093031;28;20363;-51
2023/08/12 09:05:31;;;;;;;6.45;5.82;;;;;;;20.41;100.00;101407.88;5097737;28;20126;-54
2023/08/12 09:07:59;;;;;;;5.35;5.05;;;;;;;20.45;100.00;101409.25;5093434;28;20115;-51
2023/08/12 09:10:26;;;;;;;5.00;4.70;;;;;;;20.47;100.00;101409.91;5100398;28;20093;-51
2023/08/12 09:12:54;;;;;;;4.05;3.78;;;;;;;20.48;100.00;101418.84;5096028;28;20028;-51
2023/08/12 09:15:20;;;;;;;3.90;3.30;;;;;;;20.47;100.00;101422.59;5093754;28;20028;-53
2023/08/12 09:17:45;;;;;;;3.65;3.13;;;;;;;20.46;100.00;101420.88;5096979;28;20034;-51
2023/08/12 09:20:14;;;;;;;3.65;3.15;;;;;;;20.51;100.00;101434.72;5093203;28;20474;-50
2023/08/12 09:22:43;;;;;;;3.60;3.40;;;;;;;20.49;100.00;101439.44;5086982;28;20024;-53
2023/08/12 09:25:09;;;;;;;3.42;3.22;;;;;;;20.47;100.00;101447.69;5092138;27;20390;-52
2023/08/12 09:27:38;;;;;;;2.80;2.60;;;;;;;20.44;100.00;101439.94;5099850;28;20031;-53
2023/08/12 09:30:04;;;;;;;2.10;2.00;;;;;;;20.41;100.00;101442.97;5094892;28;20051;-51
2023/08/12 09:32:30;;;;;;;2.28;1.90;;;;;;;20.42;100.00;101449.22;5097863;28;20028;-54
2023/08/12 09:34:56;;;;;;;2.25;2.08;;;;;;;20.44;100.00;101450.72;5093099;28;20035;-51
2023/08/12 09:37:23;;;;;;;1.95;1.85;;;;;;;20.42;100.00;101444.66;5093123;28;20107;-50
2023/08/12 09:39:51;;;;;;;2.30;2.08;;;;;;;20.35;100.00;101446.34;5094755;28;20422;-51
2023/08/12 09:42:17;;;;;;;3.65;2.45;;;;;;;20.37;100.00;101447.03;5096105;28;20027;-51
2023/08/12 09:44:43;;;;;;;3.40;2.03;;;;;;;20.39;100.00;101454.94;5096402;28;20043;-50
2023/08/12 09:47:08;;;;;;;3.00;2.40;;;;;;;20.40;100.00;101451.22;5094307;28;20016;-51
2023/08/12 09:49:35;;;;;;;2.85;2.45;;;;;;;20.35;100.00;101449.06;5099595;28;20475;-51
2023/08/12 09:52:02;;;;;;;4.72;2.60;;;;;;;20.40;100.00;101449.38;5097590;28;20489;-52
2023/08/12 09:54:28;;;;;;;4.78;2.85;;;;;;;20.37;100.00;101440.75;5099012;28;20028;-51
2023/08/12 09:56:58;;;;;;;4.63;2.53;;;;;;;20.45;100.00;101455.13;5094570;28;20024;-51
2023/08/12 09:59:27;;;;;;;3.55;2.50;;;;;;;20.45;100.00;101457.81;5099874;28;20031;-51
2023/08/12 10:01:53;;;;;;;5.80;2.78;;;;;;;20.50;100.00;101460.00;5096829;28;20108;-51
2023/08/12 10:04:22;;;;;;;2.92;2.30;;;;;;;20.61;100.00;101464.22;5094695;28;20035;-51
2023/08/12 10:06:48;;;;;;;;;;;;;;;20.72;100.00;101463.06;5095625;28;20089;-50
2023/08/12 10:09:15;;;;;;;4.68;2.60;;;;;;;20.64;100.00;101459.38;5100279;28;20262;-51
2023/08/12 10:11:44;;;;;;;3.30;2.33;;;;;;;20.74;100.00;101467.28;5097986;28;20027;-50
2023/08/12 10:14:10;;;;;;;3.67;2.10;;;;;;;20.86;100.00;101463.22;5098155;28;20119;-51
2023/08/12 10:16:36;;;;;;;5.30;1.88;;;;;;;20.85;100.00;101448.06;5101505;28;20028;-53
2023/08/12 10:19:02;;;;;;;4.35;2.00;;;;;;;20.91;100.00;101454.63;5098238;28;20041;-51
2023/08/12 10:21:28;;;;;;;6.20;2.35;;;;;;;20.98;100.00;101457.47;5094264;28;20032;-51
2023/08/12 10:23:54;;;;;;;6.47;2.28;;;;;;;21.01;100.00;101467.94;5088019;28;20046;-51
2023/08/12 10:26:19;;;;;;;4.25;1.75;;;;;;;21.14;100.00;101456.63;5089366;28;20029;-50
2023/08/12 10:28:45;;;;;;;3.72;1.70;;;;;;;21.16;100.00;101458.13;5094483;28;20039;-51
2023/08/12 10:31:13;;;;;;;5.32;1.83;;;;;;;21.30;100.00;101443.06;5096854;28;20103;-51
2023/08/12 10:33:39;;;;;;;5.00;2.40;;;;;;;21.44;100.00;101453.13;5094586;28;20494;-50
2023/08/12 10:36:05;;;;;;;5.10;2.10;;;;;;;21.65;100.00;101448.19;5098369;28;20067;-51
2023/08/12 10:38:32;;;;;;;6.28;2.38;;;;;;;21.75;100.00;101456.91;5090725;28;20486;-51
2023/08/12 10:41:36;;;;;;;3.90;1.70;;;;;;;21.88;100.00;101454.50;5098570;28;20030;-51
2023/08/12 10:44:05;;;;;;;3.40;1.88;;;;;;;21.89;100.00;101458.06;5065415;28;20056;-51
2023/08/12 10:46:35;;;;;;;5.32;1.90;;;;;;;21.97;100.00;101468.84;5063211;28;20434;-51
2023/08/12 10:49:09;;;;;;;6.45;1.65;;;;;;;21.97;100.00;101460.72;5085110;28;20032;-51
2023/08/12 10:51:51;;;;;;;6.78;1.70;;;;;;;22.02;98.05;101471.84;5097208;28;20035;-51
2023/08/12 10:54:17;;;;;;;4.88;1.98;;;;;;;22.11;99.96;101473.47;5090620;28;20040;-52
2023/08/12 10:57:13;;;;;;;3.80;1.92;;;;;;;22.16;98.64;101462.94;5093911;28;20028;-51
2023/08/12 10:59:44;;;;;;;7.95;2.33;;;;;;;22.17;97.18;101470.06;5094142;28;20020;-51
2023/08/12 11:02:22;;;;;;;7.72;1.73;;;;;;;22.29;98.01;101477.78;5095596;28;20102;-52
2023/08/12 11:05:06;;;;;;;5.77;1.70;;;;;;;22.30;93.22;101480.31;5099836;28;20500;-51
2023/08/12 11:07:56;;;;;;;3.53;1.73;;;;;;;22.37;90.74;101488.56;5096092;28;20032;-51
2023/08/12 11:10:26;;;;;;;4.63;2.40;;;;;;;22.39;89.51;101482.97;5095542;28;20118;-50